createdAt,value
2023-10-23T00:05:07.016Z,2.7
2023-10-23T00:10:03.406Z,3.1
2023-10-23T00:20:13.347Z,3
2023-10-23T00:25:02.886Z,2.7
2023-10-23T00:35:03.305Z,2.8
2023-10-23T00:40:03.281Z,2.7
2023-10-23T00:50:12.442Z,2.8
2023-10-23T00:55:12.349Z,2.8
2023-10-23T01:04:53.857Z,3
2023-10-23T01:09:54.044Z,2.6
2023-10-23T01:19:54.067Z,3
2023-10-23T01:34:50.427Z,2.9
2023-10-23T01:49:50.209Z,2.8
2023-10-23T01:54:53.223Z,2.9
2023-10-23T01:59:33.471Z,3
2023-10-23T02:04:34.907Z,2.9
2023-10-23T02:14:30.496Z,2.8
2023-10-23T02:19:30.995Z,2.6
2023-10-23T02:24:41.797Z,2.9
2023-10-23T02:29:30.590Z,2.9
2023-10-23T02:34:30.926Z,2.6
2023-10-23T02:44:31.641Z,2.8
2023-10-23T02:49:28.096Z,2.6
2023-10-23T02:59:27.589Z,2.7
2023-10-23T03:04:28.358Z,2.5
2023-10-23T03:09:28.800Z,2.7
2023-10-23T03:14:27.781Z,2.7
2023-10-23T03:19:27.402Z,2.7
2023-10-23T03:29:25.819Z,2.5
2023-10-23T03:34:25.224Z,2.9
2023-10-23T03:44:25.121Z,2.8
2023-10-23T03:49:24.555Z,2.8
2023-10-23T04:01:26.403Z,2.6
2023-10-23T04:10:47.603Z,2.6
2023-10-23T04:15:47.147Z,2.8
2023-10-23T04:25:47.050Z,2.4
2023-10-23T04:30:46.930Z,2.5
2023-10-23T04:40:47.117Z,2.3
2023-10-23T04:45:47.231Z,2.4
2023-10-23T04:55:44.390Z,2.5
2023-10-23T05:05:05.824Z,2.8
2023-10-23T05:10:05.359Z,2.4
2023-10-23T05:20:05.548Z,2.8
2023-10-23T05:25:05.493Z,2.7
2023-10-23T05:35:15.894Z,3
2023-10-23T05:40:13.622Z,3.3
2023-10-23T05:50:03.106Z,4.4
2023-10-23T05:55:03.629Z,3.7
2023-10-23T06:04:53.615Z,7
2023-10-23T06:09:49.510Z,11.2
2023-10-23T06:19:49.145Z,28.3
2023-10-23T06:24:49.583Z,27.8
2023-10-23T06:34:49.898Z,62.1
2023-10-23T06:39:49.381Z,75.8
2023-10-23T06:49:48.171Z,56.5
2023-10-23T06:54:48.620Z,65.9
2023-10-23T06:59:30.537Z,68.7
2023-10-23T07:04:31.159Z,70.1
2023-10-23T07:14:31.165Z,70.2
2023-10-23T07:19:30.786Z,70.5
2023-10-23T07:29:29.572Z,74.9
2023-10-23T07:34:29.176Z,80.6
2023-10-23T07:44:28.965Z,80.8
2023-10-23T07:49:28.801Z,90.6
2023-10-23T07:59:28.878Z,96.5
2023-10-23T08:04:29.221Z,97.8
2023-10-23T08:14:25.899Z,98.3
2023-10-23T08:19:27.898Z,103.4
2023-10-23T08:29:33.523Z,109.7
2023-10-23T08:34:26.315Z,108.4
2023-10-23T08:44:26.212Z,129.1
2023-10-23T08:49:25.357Z,124.7
2023-10-23T08:54:40.615Z,117.5
2023-10-23T08:59:24.917Z,127.6
2023-10-23T09:01:27.731Z,132.5
2023-10-23T09:10:47.151Z,142.9
2023-10-23T09:25:47.545Z,134.9
2023-10-23T09:40:44.384Z,165.7
2023-10-23T09:55:44.546Z,140.5
2023-10-23T10:05:07.168Z,135.5
2023-10-23T10:10:08.283Z,134
2023-10-23T10:20:04.226Z,146.3
2023-10-23T10:25:04.510Z,141.3
2023-10-23T10:40:04.816Z,120.4
2023-10-23T10:50:05.685Z,119.6
2023-10-23T10:55:12.485Z,146.9
2023-10-23T11:04:47.848Z,195.7
2023-10-23T11:19:47.429Z,177.9
2023-10-23T11:34:44.957Z,145.6
2023-10-23T11:49:44.359Z,113
2023-10-23T12:04:44.722Z,75.4
2023-10-23T12:19:41.846Z,109.2
2023-10-23T12:49:41.588Z,43.7
2023-10-23T13:04:38.611Z,77.1
2023-10-23T13:19:39.830Z,50.5
2023-10-23T13:34:38.486Z,27.9
2023-10-23T13:49:35.183Z,107.4
2023-10-23T14:04:36.014Z,119.6
2023-10-23T14:10:36.862Z,149.3
2023-10-23T14:19:53.317Z,126.1
2023-10-23T14:29:32.966Z,85
2023-10-23T14:34:33.384Z,77.1
2023-10-23T14:44:32.630Z,67.8
2023-10-23T14:49:33.318Z,73.7
2023-10-23T14:59:32.862Z,88.6
2023-10-23T15:04:31.250Z,77.6
2023-10-23T15:14:29.615Z,35.8
2023-10-23T15:19:29.235Z,22
2023-10-23T15:29:29.373Z,22.6
2023-10-23T15:34:29.119Z,20.7
2023-10-23T15:44:26.513Z,14.2
2023-10-23T15:49:26.095Z,13.5
2023-10-23T15:59:26.261Z,4.9
2023-10-23T16:04:26.184Z,4
2023-10-23T16:09:31.348Z,3.8
2023-10-23T16:14:26.735Z,3.8
2023-10-23T16:19:27.455Z,3.1
2023-10-23T16:29:23.927Z,1.6
2023-10-23T16:34:23.834Z,1.1
2023-10-23T16:44:23.845Z,0.9
2023-10-23T16:49:23.734Z,1
2023-10-23T16:59:24.581Z,0.9
2023-10-23T17:01:28.065Z,1.1
2023-10-23T17:10:44.992Z,0.7
2023-10-23T17:25:45.129Z,0.9
2023-10-23T17:40:45.105Z,0.8
2023-10-23T17:55:44.085Z,1
2023-10-23T18:05:04.835Z,0.9
2023-10-23T18:10:04.750Z,0.9
2023-10-23T18:20:05.046Z,0.8
2023-10-23T18:25:04.984Z,0.8
2023-10-23T18:35:04.242Z,0.8
2023-10-23T18:40:03.279Z,0.8
2023-10-23T18:50:13.938Z,0.7
2023-10-23T18:55:03.647Z,0.7
2023-10-23T19:04:52.340Z,0.8
2023-10-23T19:09:51.665Z,0.7
2023-10-23T19:19:51.943Z,0.6
2023-10-23T19:24:51.559Z,0.6
2023-10-23T19:34:52.130Z,0.6
2023-10-23T19:39:51.628Z,0.6
2023-10-23T19:49:49.238Z,0.7
2023-10-23T19:55:43.010Z,0.6
2023-10-23T19:59:31.797Z,0.6
2023-10-23T20:04:32.384Z,0.6
2023-10-23T20:14:32.634Z,0.7
2023-10-23T20:19:33.285Z,0.6
2023-10-23T20:29:29.722Z,0.6
2023-10-23T20:34:29.476Z,0.6
2023-10-23T20:44:29.643Z,0.6
2023-10-23T20:49:29.439Z,0.6
2023-10-23T20:59:29.149Z,0.6
2023-10-23T21:04:29.371Z,0.6
2023-10-23T21:14:28.295Z,0.6
2023-10-23T21:19:28.097Z,0.6
2023-10-23T21:29:28.994Z,0.6
2023-10-23T21:34:29.690Z,0.6
2023-10-23T21:44:27.615Z,0.6
2023-10-23T21:49:27.544Z,0.6
2023-10-23T21:59:55.894Z,0.6
2023-10-23T22:01:58.207Z,0.6
2023-10-23T22:10:46.663Z,0.5
2023-10-23T22:25:46.853Z,0.6
2023-10-23T22:40:43.585Z,0.5
2023-10-23T22:55:43.337Z,0.6
2023-10-23T23:05:06.122Z,0.6
2023-10-23T23:10:06.971Z,0.6
2023-10-23T23:15:03.091Z,0.6
2023-10-23T23:20:13.478Z,0.6
2023-10-23T23:25:14.977Z,0.6
2023-10-23T23:35:03.440Z,0.6
2023-10-23T23:40:14.111Z,0.6
2023-10-23T23:50:12.777Z,0.6
2023-10-23T23:55:12.923Z,0.6
